Airfield :
LOGIN :

Register | Disclaimer

   EN    FR    IT 

 










Legend :    VFR   Marginal VFR   IFR   Intensive IFR   Very Intensive IFR
Visi :
Ceiling :
>= 8 km
>= 3000ft
5 to 8 km
1000 to 3000 ft
1500m to 5 km
500 to 1000 ft
800 to 1500m
200 to 500 ft
< 800m
< 200 ft
Symbols :   Thunderstorms  Fog  Heavy snow  Heavy precipitations  Wind > 20 kt
SIGMETs :     Misc.  Thunderstorms  Icing  Turbulence  Mountain Waves  Volcanic Ashes






- Airport Elevation : 195 ft


LFMY - Salon de Provence

CURRENT METAR :
  • 200400Z AUTO 34022KT CAVOK 12/05 Q1013

EXPIRED METARs :
  • 200330Z AUTO 34018KT CAVOK 12/05 Q1013
  • 200300Z AUTO 34016KT CAVOK 12/04 Q1013
  • 200230Z AUTO 32011KT 270V350 CAVOK 11/02 Q1014
  • 200200Z AUTO 33009KT CAVOK 11/02 Q1014
  • 200130Z AUTO 31003KT 270V350 CAVOK 10/02 Q1014
  • 200100Z AUTO 28004KT 250V320 CAVOK 10/02 Q1014
  • 200030Z AUTO 30003KT 240V350 CAVOK 11/02 Q1014
  • 200000Z AUTO 26003KT CAVOK 09/02 Q1014
  • 192330Z AUTO 27004KT CAVOK 10/02 Q1015

TAF TAF LFMY
Valid from the 19 at 09:00 until the 20 at 09:00 UTC


190800Z 1909/2009 34014KT CAVOK TX19/1912Z TN08/2004Z
BECMG 1909/1911 33020G30KT
BECMG 1917/1919 32012KT



MET'MAP, your aeronautical weather chart ! - Copyright ORBIFLY December 2007 - Disclaimer

ORBIFLY MET'MAP TEAM :

Programming & Development : Alexandra Zaïnal
Original concept : Baudouin d'Aumeries
Technical & hardware support : Manuel Goepfert
Assistance : Marc-Olivier Méhu




SOURCES & CREDITS :

   NOAA